Time;durP1;ratioP1;P1;durP2;ratioP2;P2;SDS_P1;SDS_P2;PMS_P1;PMS_P2;Temp;Humidity;BMP_temperature;BMP_pressure;BME280_temperature;BME280_humidity;BME280_pressure;Samples;Min_cycle;Max_cycle;Signal;HPM_P1;HPM_P2
2021/10/12 00:00:56;;;;;;;17.67;5.82;;;;;;;;;;5072522;28;20324;-61
2021/10/12 00:03:22;;;;;;;16.58;5.47;;;;;;;;;;5072721;28;20392;-62
2021/10/12 00:05:48;;;;;;;16.02;5.38;;;;;;;;;;5072660;28;20022;-62
2021/10/12 00:08:14;;;;;;;15.63;5.18;;;;;;;;;;5072577;28;20462;-61
2021/10/12 00:10:40;;;;;;;18.98;6.07;;;;;;;;;;5071333;28;20023;-59
2021/10/12 00:13:06;;;;;;;18.80;5.78;;;;;;;;;;5072878;28;20017;-61
2021/10/12 00:15:32;;;;;;;18.63;5.68;;;;;;;;;;5071466;28;20077;-61
2021/10/12 00:17:58;;;;;;;18.13;5.45;;;;;;;;;;5071186;28;20502;-60
2021/10/12 00:20:24;;;;;;;16.92;5.60;;;;;;;;;;5072047;28;20024;-58
2021/10/12 00:22:50;;;;;;;16.05;5.95;;;;;;;;;;5072297;28;20028;-62
2021/10/12 00:25:16;;;;;;;17.05;5.45;;;;;;;;;;5072528;28;20385;-61
2021/10/12 00:27:42;;;;;;;18.45;5.85;;;;;;;;;;5070971;28;20025;-61
2021/10/12 00:30:09;;;;;;;17.27;5.72;;;;;;;;;;5071841;28;20050;-62
2021/10/12 00:32:35;;;;;;;17.17;5.60;;;;;;;;;;5070954;28;20094;-61
2021/10/12 00:35:01;;;;;;;20.17;6.25;;;;;;;;;;5070947;28;20024;-61
2021/10/12 00:37:27;;;;;;;16.75;5.55;;;;;;;;;;5072178;28;20047;-61
2021/10/12 00:39:53;;;;;;;16.55;5.22;;;;;;;;;;5072130;28;20052;-59
2021/10/12 00:42:19;;;;;;;16.98;5.53;;;;;;;;;;5072025;28;20028;-61
2021/10/12 00:44:45;;;;;;;16.90;5.60;;;;;;;;;;5070909;28;20475;-61
2021/10/12 00:47:11;;;;;;;15.57;5.40;;;;;;;;;;5072005;28;20033;-61
2021/10/12 00:49:37;;;;;;;20.05;5.70;;;;;;;;;;5071889;28;20028;-61
2021/10/12 00:52:03;;;;;;;27.42;7.95;;;;;;;;;;5071993;28;20019;-61
2021/10/12 00:54:30;;;;;;;18.17;5.82;;;;;;;;;;5072314;28;20062;-61
2021/10/12 00:56:56;;;;;;;19.65;5.63;;;;;;;;;;5071980;28;20020;-61
2021/10/12 00:59:22;;;;;;;16.92;5.43;;;;;;;;;;5071983;28;20017;-62
2021/10/12 01:01:48;;;;;;;16.20;5.32;;;;;;;;;;5073519;28;20025;-60
2021/10/12 01:04:14;;;;;;;19.17;5.60;;;;;;;;;;5076099;28;20154;-60
2021/10/12 01:06:40;;;;;;;19.23;6.72;;;;;;;;;;5076325;28;20071;-58
2021/10/12 01:09:06;;;;;;;19.20;5.38;;;;;;;;;;5075163;28;20461;-57
2021/10/12 01:11:35;;;;;;;21.40;7.15;;;;;;;;;;5074905;28;20031;-59
2021/10/12 01:14:02;;;;;;;20.85;5.50;;;;;;;;;;5075371;28;20407;-60
2021/10/12 01:16:28;;;;;;;16.42;5.47;;;;;;;;;;5074747;28;20034;-59
2021/10/12 01:19:01;;;;;;;16.88;5.93;;;;;;;;;;5075817;28;20052;-61
2021/10/12 01:21:28;;;;;;;19.95;5.85;;;;;;;;;;5075392;28;20036;-60
2021/10/12 01:23:54;;;;;;;18.85;6.07;;;;;;;;;;5075832;28;20020;-62
2021/10/12 01:26:21;;;;;;;16.38;5.50;;;;;;;;;;5074315;28;20025;-61
2021/10/12 01:28:47;;;;;;;19.83;5.85;;;;;;;;;;5075547;28;20020;-62
2021/10/12 01:31:26;;;;;;;19.95;6.70;;;;;;;;;;5074136;28;20025;-62
2021/10/12 01:33:52;;;;;;;21.88;6.50;;;;;;;;;;5075606;28;20206;-62
2021/10/12 01:36:19;;;;;;;16.52;5.50;;;;;;;;;;5075322;28;20105;-61
2021/10/12 01:38:45;;;;;;;17.98;6.10;;;;;;;;;;5075827;28;20037;-61
2021/10/12 01:41:11;;;;;;;17.90;5.65;;;;;;;;;;5075007;28;20038;-62
2021/10/12 01:43:37;;;;;;;16.90;5.70;;;;;;;;;;5074000;28;20024;-60
2021/10/12 01:46:04;;;;;;;19.75;5.82;;;;;;;;;;5075019;28;20058;-61
2021/10/12 01:48:31;;;;;;;16.75;5.88;;;;;;;;;;5075235;28;20032;-60
2021/10/12 01:50:57;;;;;;;17.00;6.25;;;;;;;;;;5073706;28;20021;-62
2021/10/12 01:53:23;;;;;;;16.60;5.32;;;;;;;;;;5075268;28;20101;-59
2021/10/12 01:55:49;;;;;;;20.15;6.43;;;;;;;;;;5075480;28;20020;-61
2021/10/12 01:58:15;;;;;;;19.45;6.25;;;;;;;;;;5073746;28;20032;-61
2021/10/12 02:00:41;;;;;;;19.73;6.57;;;;;;;;;;5074647;28;20487;-61
2021/10/12 02:03:08;;;;;;;18.48;6.20;;;;;;;;;;5073780;28;20071;-61
2021/10/12 02:05:34;;;;;;;21.27;6.47;;;;;;;;;;5074936;28;20021;-62
2021/10/12 02:08:00;;;;;;;17.10;6.75;;;;;;;;;;5074797;28;20392;-61
2021/10/12 02:10:26;;;;;;;18.80;6.20;;;;;;;;;;5074607;28;20021;-60
2021/10/12 02:12:52;;;;;;;20.10;6.53;;;;;;;;;;5075201;28;20111;-59
2021/10/12 02:15:18;;;;;;;18.98;7.28;;;;;;;;;;5073682;28;20413;-62
2021/10/12 02:17:44;;;;;;;17.23;6.78;;;;;;;;;;5074739;28;20406;-61
2021/10/12 02:20:10;;;;;;;19.80;7.07;;;;;;;;;;5073220;28;20035;-61
2021/10/12 02:22:37;;;;;;;19.42;8.43;;;;;;;;;;5074736;28;20107;-61
2021/10/12 02:25:03;;;;;;;20.63;7.38;;;;;;;;;;5074664;28;20024;-62
2021/10/12 02:27:29;;;;;;;21.00;7.40;;;;;;;;;;5074412;28;20020;-56
2021/10/12 02:29:55;;;;;;;18.48;7.82;;;;;;;;;;5072329;28;20116;-60
2021/10/12 02:32:22;;;;;;;17.77;7.93;;;;;;;;;;5074435;28;20107;-61
2021/10/12 02:34:47;;;;;;;20.10;7.93;;;;;;;;;;5074456;28;20028;-61
2021/10/12 02:37:14;;;;;;;22.00;8.38;;;;;;;;;;5074267;28;20035;-59
2021/10/12 02:39:40;;;;;;;18.83;7.75;;;;;;;;;;5074080;28;20060;-61
2021/10/12 02:42:06;;;;;;;19.55;8.27;;;;;;;;;;5072830;28;20020;-61
2021/10/12 02:44:32;;;;;;;23.52;9.38;;;;;;;;;;5073148;28;20021;-60
2021/10/12 02:46:58;;;;;;;20.05;8.07;;;;;;;;;;5074073;28;20480;-61
2021/10/12 02:49:24;;;;;;;17.65;7.25;;;;;;;;;;5073957;28;20104;-61
2021/10/12 02:51:50;;;;;;;19.45;7.88;;;;;;;;;;5074055;28;20060;-61
2021/10/12 02:54:16;;;;;;;18.23;8.35;;;;;;;;;;5072809;28;20025;-61
2021/10/12 02:56:42;;;;;;;20.20;7.40;;;;;;;;;;5072612;28;20456;-62
2021/10/12 02:59:09;;;;;;;23.27;8.25;;;;;;;;;;5074073;28;20126;-61
2021/10/12 03:01:35;;;;;;;28.40;8.82;;;;;;;;;;5073612;28;20029;-61
2021/10/12 03:04:01;;;;;;;19.80;9.02;;;;;;;;;;5072695;28;20025;-61
2021/10/12 03:06:27;;;;;;;20.00;8.60;;;;;;;;;;5073950;28;20021;-61
2021/10/12 03:08:53;;;;;;;20.85;9.27;;;;;;;;;;5072678;28;20119;-59
2021/10/12 03:11:19;;;;;;;22.85;9.57;;;;;;;;;;5072451;28;20109;-60
2021/10/12 03:13:45;;;;;;;22.15;9.07;;;;;;;;;;5072368;28;20500;-61
2021/10/12 03:16:11;;;;;;;20.98;9.02;;;;;;;;;;5072083;28;20032;-59
2021/10/12 03:18:38;;;;;;;21.92;9.40;;;;;;;;;;5072375;28;20111;-62
2021/10/12 03:21:04;;;;;;;22.60;8.65;;;;;;;;;;5073320;28;20104;-61
2021/10/12 03:23:30;;;;;;;24.15;9.40;;;;;;;;;;5071669;28;20028;-61
2021/10/12 03:25:56;;;;;;;21.33;8.93;;;;;;;;;;5073235;28;20472;-61
2021/10/12 03:28:22;;;;;;;23.45;10.07;;;;;;;;;;5071970;28;20031;-55
2021/10/12 03:30:50;;;;;;;24.80;11.15;;;;;;;;;;5072911;28;20049;-56
2021/10/12 03:33:16;;;;;;;21.58;9.48;;;;;;;;;;5071844;28;20059;-56
2021/10/12 03:35:49;;;;;;;25.17;10.48;;;;;;;;;;5071901;28;20115;-57
2021/10/12 03:38:15;;;;;;;21.92;10.48;;;;;;;;;;5073104;28;20043;-59
2021/10/12 03:40:41;;;;;;;22.73;10.55;;;;;;;;;;5071413;28;20123;-59
2021/10/12 03:43:07;;;;;;;21.42;9.70;;;;;;;;;;5072946;28;20016;-58
2021/10/12 03:45:33;;;;;;;28.35;10.23;;;;;;;;;;5072913;28;20023;-58
2021/10/12 03:47:59;;;;;;;28.80;10.05;;;;;;;;;;5073935;28;20430;-58
2021/10/12 03:50:25;;;;;;;20.15;8.40;;;;;;;;;;5071430;28;20029;-58
2021/10/12 03:52:51;;;;;;;23.00;9.18;;;;;;;;;;5073033;28;20113;-60
2021/10/12 03:55:17;;;;;;;29.52;9.10;;;;;;;;;;5072735;28;20016;-57
2021/10/12 03:57:43;;;;;;;21.40;8.25;;;;;;;;;;5072537;28;20024;-59
2021/10/12 04:00:09;;;;;;;24.30;9.35;;;;;;;;;;5072536;28;20142;-59
2021/10/12 04:02:35;;;;;;;21.17;8.00;;;;;;;;;;5072683;28;20025;-60
2021/10/12 04:05:01;;;;;;;21.77;9.43;;;;;;;;;;5072518;28;20028;-56
2021/10/12 04:07:28;;;;;;;22.33;8.63;;;;;;;;;;5071279;28;20024;-61
2021/10/12 04:09:54;;;;;;;22.95;7.97;;;;;;;;;;5072256;28;20025;-59
2021/10/12 04:12:20;;;;;;;23.95;8.90;;;;;;;;;;5071272;28;20024;-57
2021/10/12 04:14:46;;;;;;;22.70;8.60;;;;;;;;;;5071156;28;20031;-59
2021/10/12 04:17:12;;;;;;;22.80;8.80;;;;;;;;;;5072353;28;20067;-59
2021/10/12 04:19:38;;;;;;;25.65;8.73;;;;;;;;;;5070807;28;20078;-60
2021/10/12 04:22:04;;;;;;;21.98;8.32;;;;;;;;;;5072087;28;20118;-57
2021/10/12 04:24:30;;;;;;;23.45;8.65;;;;;;;;;;5072042;28;20017;-59
2021/10/12 04:26:56;;;;;;;22.00;8.55;;;;;;;;;;5071987;28;20395;-61
2021/10/12 04:29:22;;;;;;;20.92;8.32;;;;;;;;;;5070798;28;20025;-57
2021/10/12 04:31:49;;;;;;;19.77;8.00;;;;;;;;;;5071778;28;20021;-61
2021/10/12 04:34:15;;;;;;;18.52;8.23;;;;;;;;;;5071866;28;20033;-60
2021/10/12 04:36:41;;;;;;;22.15;7.72;;;;;;;;;;5069811;28;20095;-60
2021/10/12 04:39:07;;;;;;;21.45;9.55;;;;;;;;;;5072206;28;20024;-53
2021/10/12 04:41:33;;;;;;;21.38;9.05;;;;;;;;;;5070226;28;20047;-59
2021/10/12 04:43:59;;;;;;;24.25;8.93;;;;;;;;;;5070606;28;20107;-58
2021/10/12 04:46:25;;;;;;;22.40;8.90;;;;;;;;;;5070372;28;20028;-60
2021/10/12 04:48:51;;;;;;;22.95;8.80;;;;;;;;;;5071847;28;20468;-61
2021/10/12 04:51:17;;;;;;;17.95;8.80;;;;;;;;;;5070168;28;20116;-57
2021/10/12 04:53:43;;;;;;;23.25;9.05;;;;;;;;;;5070552;28;20020;-58
2021/10/12 04:56:09;;;;;;;22.50;9.52;;;;;;;;;;5071426;28;20025;-62
2021/10/12 04:58:35;;;;;;;24.08;9.80;;;;;;;;;;5070143;28;20032;-56
2021/10/12 05:01:01;;;;;;;23.83;9.88;;;;;;;;;;5071278;28;20529;-60
2021/10/12 05:03:27;;;;;;;24.58;10.80;;;;;;;;;;5070108;28;20036;-58
2021/10/12 05:05:53;;;;;;;23.50;10.32;;;;;;;;;;5071452;28;20023;-58
2021/10/12 05:08:19;;;;;;;25.67;11.40;;;;;;;;;;5071490;28;20241;-60
2021/10/12 05:10:45;;;;;;;27.17;10.00;;;;;;;;;;5069599;28;20059;-60
2021/10/12 05:13:11;;;;;;;22.48;9.93;;;;;;;;;;5070998;28;20488;-59
2021/10/12 05:15:45;;;;;;;25.30;10.80;;;;;;;;;;5071501;28;20105;-60
2021/10/12 05:18:17;;;;;;;23.33;13.05;;;;;;;;;;5070047;28;20480;-60
2021/10/12 05:20:43;;;;;;;22.73;10.63;;;;;;;;;;5069703;28;20074;-60
2021/10/12 05:23:09;;;;;;;26.80;10.43;;;;;;;;;;5071258;28;20024;-61
2021/10/12 05:25:35;;;;;;;23.85;11.25;;;;;;;;;;5069768;28;20031;-59
2021/10/12 05:28:01;;;;;;;26.50;11.93;;;;;;;;;;5069803;28;20366;-59
2021/10/12 05:30:27;;;;;;;26.20;11.60;;;;;;;;;;5069712;28;20058;-61
2021/10/12 05:32:53;;;;;;;23.10;11.60;;;;;;;;;;5069742;28;20031;-61
2021/10/12 05:35:19;;;;;;;31.48;13.23;;;;;;;;;;5070828;28;20096;-60
2021/10/12 05:37:45;;;;;;;26.73;12.60;;;;;;;;;;5070987;28;20029;-62
2021/10/12 05:40:12;;;;;;;25.25;12.70;;;;;;;;;;5069597;28;20062;-60
2021/10/12 05:42:38;;;;;;;24.85;12.57;;;;;;;;;;5071226;28;20032;-61
2021/10/12 05:45:04;;;;;;;32.35;14.07;;;;;;;;;;5069767;28;20028;-60
2021/10/12 05:47:30;;;;;;;24.58;11.93;;;;;;;;;;5073111;28;20499;-60
2021/10/12 05:49:56;;;;;;;28.55;12.98;;;;;;;;;;5073289;28;20052;-62
2021/10/12 05:52:24;;;;;;;26.65;13.05;;;;;;;;;;5073379;28;20181;-60
2021/10/12 05:54:57;;;;;;;31.73;13.33;;;;;;;;;;5074689;28;20021;-61
2021/10/12 05:57:35;;;;;;;27.55;11.98;;;;;;;;;;5074949;28;20025;-62
2021/10/12 06:00:01;;;;;;;31.38;14.18;;;;;;;;;;5073418;28;20032;-62
2021/10/12 06:02:27;;;;;;;29.20;13.40;;;;;;;;;;5074696;28;20044;-60
2021/10/12 06:04:53;;;;;;;30.55;13.75;;;;;;;;;;5073746;28;20365;-61
2021/10/12 06:07:19;;;;;;;27.27;14.63;;;;;;;;;;5073577;28;20406;-59
2021/10/12 06:09:45;;;;;;;27.25;13.98;;;;;;;;;;5074738;28;20028;-60
2021/10/12 06:12:11;;;;;;;24.67;13.10;;;;;;;;;;5074717;28;20467;-59
2021/10/12 06:14:37;;;;;;;28.02;14.77;;;;;;;;;;5073088;28;20115;-60
2021/10/12 06:17:03;;;;;;;28.13;12.63;;;;;;;;;;5074371;28;20074;-62
2021/10/12 06:19:29;;;;;;;32.42;14.32;;;;;;;;;;5074221;28;20125;-60
2021/10/12 06:21:55;;;;;;;27.15;12.50;;;;;;;;;;5072736;28;20032;-60
2021/10/12 06:24:21;;;;;;;29.75;13.20;;;;;;;;;;5074460;28;20060;-59
2021/10/12 06:26:47;;;;;;;26.27;11.88;;;;;;;;;;5074465;28;20032;-61
2021/10/12 06:29:13;;;;;;;25.05;12.32;;;;;;;;;;5072839;28;20013;-61
2021/10/12 06:31:39;;;;;;;21.50;10.82;;;;;;;;;;5072580;28;20029;-60
2021/10/12 06:34:06;;;;;;;23.45;12.50;;;;;;;;;;5072642;28;20038;-60
2021/10/12 06:36:32;;;;;;;26.25;11.98;;;;;;;;;;5069549;28;20482;-59
2021/10/12 06:38:58;;;;;;;27.98;12.60;;;;;;;;;;5055858;28;20031;-62
2021/10/12 06:41:24;;;;;;;24.58;11.35;;;;;;;;;;5072161;28;20074;-60
2021/10/12 06:43:50;;;;;;;24.63;10.68;;;;;;;;;;5069934;28;20017;-61
2021/10/12 06:46:16;;;;;;;26.40;10.75;;;;;;;;;;5053506;28;20051;-60
2021/10/12 06:48:42;;;;;;;25.33;11.07;;;;;;;;;;5052369;28;20127;-61
2021/10/12 06:51:08;;;;;;;27.85;11.73;;;;;;;;;;5051987;28;20032;-61
2021/10/12 06:53:34;;;;;;;23.27;10.90;;;;;;;;;;5066785;28;20028;-60
2021/10/12 06:56:00;;;;;;;24.60;10.93;;;;;;;;;;5072118;28;20085;-62
2021/10/12 06:58:25;;;;;;;27.48;11.35;;;;;;;;;;5072441;28;20024;-62
2021/10/12 07:00:51;;;;;;;22.92;11.88;;;;;;;;;;5072015;28;20568;-60
2021/10/12 07:03:17;;;;;;;23.42;11.57;;;;;;;;;;5072780;28;20376;-61
2021/10/12 07:05:43;;;;;;;24.63;11.35;;;;;;;;;;5072442;28;20016;-62
2021/10/12 07:08:09;;;;;;;24.00;12.38;;;;;;;;;;5074556;28;20098;-62
2021/10/12 07:10:35;;;;;;;25.45;13.85;;;;;;;;;;5059772;28;20025;-61
2021/10/12 07:13:01;;;;;;;27.80;14.38;;;;;;;;;;5052753;28;20102;-59
2021/10/12 07:15:27;;;;;;;24.30;15.13;;;;;;;;;;5053408;28;20107;-57
2021/10/12 07:17:54;;;;;;;26.77;15.73;;;;;;;;;;5053150;28;20021;-50
2021/10/12 07:20:20;;;;;;;31.98;18.40;;;;;;;;;;5053002;28;20029;-58
2021/10/12 07:22:46;;;;;;;27.67;17.15;;;;;;;;;;5051698;28;20032;-55
2021/10/12 07:25:12;;;;;;;27.40;16.77;;;;;;;;;;5053136;28;20036;-57
2021/10/12 07:27:38;;;;;;;25.98;17.33;;;;;;;;;;5053082;28;20539;-58
2021/10/12 07:30:04;;;;;;;28.77;18.17;;;;;;;;;;5051240;28;20025;-59
2021/10/12 07:32:30;;;;;;;23.00;16.52;;;;;;;;;;5052654;28;20056;-51
2021/10/12 07:34:56;;;;;;;31.85;18.80;;;;;;;;;;5051458;28;20037;-56
2021/10/12 07:37:22;;;;;;;28.63;17.40;;;;;;;;;;5051626;28;20546;-55
2021/10/12 07:39:48;;;;;;;25.15;16.52;;;;;;;;;;5051354;28;20071;-56
2021/10/12 07:42:14;;;;;;;26.48;15.23;;;;;;;;;;5051294;28;20029;-57
2021/10/12 07:44:41;;;;;;;27.00;15.50;;;;;;;;;;5051425;28;20025;-54
2021/10/12 07:47:07;;;;;;;23.23;14.98;;;;;;;;;;5052568;28;20051;-56
2021/10/12 07:49:33;;;;;;;23.80;17.95;;;;;;;;;;5051415;28;20021;-57
2021/10/12 07:52:05;;;;;;;22.60;16.27;;;;;;;;;;5051329;28;20025;-52
2021/10/12 07:54:39;;;;;;;22.88;15.93;;;;;;;;;;5052667;28;20102;-55
2021/10/12 07:57:05;;;;;;;25.75;17.60;;;;;;;;;;5052249;28;20139;-55
2021/10/12 07:59:31;;;;;;;25.85;17.90;;;;;;;;;;5050777;28;20131;-54
2021/10/12 08:01:57;;;;;;;26.38;15.75;;;;;;;;;;5050680;28;20059;-54
2021/10/12 08:04:23;;;;;;;22.23;14.75;;;;;;;;;;5052463;28;20353;-56
2021/10/12 08:06:49;;;;;;;23.33;15.40;;;;;;;;;;5051345;28;20024;-55
2021/10/12 08:09:16;;;;;;;26.60;14.52;;;;;;;;;;5052070;28;20079;-56
2021/10/12 08:11:42;;;;;;;24.52;14.45;;;;;;;;;;5069649;28;20032;-53
2021/10/12 08:14:10;;;;;;;23.30;12.90;;;;;;;;;;5072476;28;20480;-58
2021/10/12 08:16:36;;;;;;;21.50;12.73;;;;;;;;;;5071829;28;20095;-56
2021/10/12 08:19:04;;;;;;;24.95;13.73;;;;;;;;;;5071415;28;20055;-63
2021/10/12 08:21:30;;;;;;;20.95;13.13;;;;;;;;;;5072062;28;20510;-63
2021/10/12 08:23:57;;;;;;;23.17;13.13;;;;;;;;;;5072269;28;20024;-63
2021/10/12 08:26:23;;;;;;;24.58;13.25;;;;;;;;;;5071930;28;20146;-63
2021/10/12 08:28:49;;;;;;;21.92;13.30;;;;;;;;;;5071820;28;20025;-63
2021/10/12 08:31:17;;;;;;;22.55;12.85;;;;;;;;;;5071914;28;20067;-64
2021/10/12 08:33:43;;;;;;;21.73;12.43;;;;;;;;;;5070945;28;20479;-60
2021/10/12 08:36:10;;;;;;;23.35;11.98;;;;;;;;;;5072259;28;20480;-63
2021/10/12 08:38:36;;;;;;;19.95;12.57;;;;;;;;;;5055991;28;20052;-63
2021/10/12 08:41:05;;;;;;;22.45;12.57;;;;;;;;;;5050625;28;20025;-63
2021/10/12 08:43:32;;;;;;;20.30;11.65;;;;;;;;;;5052793;28;20033;-64
2021/10/12 08:45:58;;;;;;;20.33;10.93;;;;;;;;;;5051805;28;20032;-64
2021/10/12 08:48:24;;;;;;;22.67;11.82;;;;;;;;;;5049259;28;20539;-65
2021/10/12 08:50:50;;;;;;;22.15;11.35;;;;;;;;;;5051074;28;20092;-65
2021/10/12 08:53:16;;;;;;;18.77;11.90;;;;;;;;;;5051934;28;20079;-64
2021/10/12 08:55:43;;;;;;;18.55;10.63;;;;;;;;;;5052256;28;20049;-64
2021/10/12 08:58:11;;;;;;;23.85;10.95;;;;;;;;;;5050753;28;20025;-64
2021/10/12 09:00:37;;;;;;;;;;;;;;;;;;5052105;28;20350;-66
2021/10/12 09:05:52;;;;;;;18.85;10.82;;;;;;;;;;5052066;28;20021;-65
2021/10/12 09:08:35;;;;;;;20.98;11.10;;;;;;;;;;5052167;28;20017;-63
2021/10/12 09:11:02;;;;;;;18.83;10.07;;;;;;;;;;5051819;28;20025;-66
2021/10/12 09:13:28;;;;;;;20.77;10.60;;;;;;;;;;5052536;28;20025;-64
2021/10/12 09:16:03;;;;;;;24.45;10.10;;;;;;;;;;5052009;28;20435;-64
2021/10/12 09:18:48;;;;;;;19.92;10.35;;;;;;;;;;5050573;28;20047;-65
2021/10/12 09:21:14;;;;;;;19.85;10.98;;;;;;;;;;5050363;28;20116;-65
2021/10/12 09:23:43;;;;;;;18.70;10.50;;;;;;;;;;5056431;28;20052;-64
2021/10/12 09:26:21;;;;;;;21.13;10.70;;;;;;;;;;5054714;28;20059;-64
2021/10/12 09:28:47;;;;;;;21.27;11.60;;;;;;;;;;5055841;28;20075;-65
2021/10/12 09:31:13;;;;;;;23.77;12.15;;;;;;;;;;5054347;28;20060;-65
2021/10/12 09:33:46;;;;;;;21.67;12.77;;;;;;;;;;5054354;28;20056;-65
2021/10/12 09:36:28;;;;;;;20.05;14.15;;;;;;;;;;5054568;28;20032;-65
2021/10/12 09:38:55;;;;;;;21.25;13.55;;;;;;;;;;5057283;28;20033;-65
2021/10/12 09:41:28;;;;;;;21.55;15.40;;;;;;;;;;5055679;28;20455;-66
2021/10/12 09:44:14;;;;;;;35.63;24.45;;;;;;;;;;5055089;28;20039;-64
2021/10/12 09:49:26;;;;;;;23.27;20.63;;;;;;;;;;5054437;28;20131;-60
2021/10/12 09:51:59;;;;;;;24.33;19.80;;;;;;;;;;5053956;28;20397;-59
2021/10/12 09:54:26;;;;;;;25.23;18.98;;;;;;;;;;5054002;28;20033;-57
2021/10/12 09:56:52;;;;;;;26.83;19.25;;;;;;;;;;5054148;28;20021;-58
2021/10/12 09:59:18;;;;;;;26.13;18.25;;;;;;;;;;5054334;28;20063;-60
2021/10/12 10:01:46;;;;;;;23.88;18.48;;;;;;;;;;5054380;28;20033;-60
2021/10/12 10:04:14;;;;;;;24.35;18.05;;;;;;;;;;5055064;28;20018;-56
2021/10/12 10:06:42;;;;;;;25.25;17.33;;;;;;;;;;5036978;28;20032;-59
2021/10/12 10:09:08;;;;;;;25.30;19.95;;;;;;;;;;5054853;28;20017;-59
2021/10/12 10:11:42;;;;;;;24.67;18.67;;;;;;;;;;5053994;28;20083;-61
2021/10/12 10:14:09;;;;;;;25.38;18.45;;;;;;;;;;5036583;28;20040;-59
2021/10/12 10:16:37;;;;;;;22.52;17.55;;;;;;;;;;5036327;28;20492;-60
2021/10/12 10:19:05;;;;;;;22.20;16.35;;;;;;;;;;5054005;28;20060;-60
2021/10/12 10:21:36;;;;;;;19.88;15.40;;;;;;;;;;5035956;28;20119;-60
2021/10/12 10:24:09;;;;;;;19.05;16.42;;;;;;;;;;5054244;28;20495;-62
2021/10/12 10:26:42;;;;;;;20.30;16.05;;;;;;;;;;5053963;28;20017;-60
2021/10/12 10:29:21;;;;;;;21.00;16.25;;;;;;;;;;5035984;28;20018;-61
2021/10/12 10:31:51;;;;;;;21.25;15.88;;;;;;;;;;5053475;28;20025;-60
2021/10/12 10:34:27;;;;;;;21.38;14.60;;;;;;;;;;5052494;28;20473;-58
2021/10/12 10:37:12;;;;;;;19.83;14.35;;;;;;;;;;5036093;28;20029;-62
2021/10/12 10:39:39;;;;;;;18.80;14.02;;;;;;;;;;5035690;28;20032;-59
2021/10/12 10:42:05;;;;;;;19.38;13.00;;;;;;;;;;5053557;28;20488;-61
2021/10/12 10:44:49;;;;;;;20.33;13.23;;;;;;;;;;5053454;28;20029;-56
2021/10/12 10:47:34;;;;;;;16.38;13.02;;;;;;;;;;5053722;28;20029;-61
2021/10/12 10:50:10;;;;;;;20.88;13.68;;;;;;;;;;5053228;28;20108;-59
2021/10/12 10:52:43;;;;;;;16.60;12.77;;;;;;;;;;5053761;28;20021;-58
2021/10/12 10:55:10;;;;;;;28.33;11.80;;;;;;;;;;5053005;28;20139;-57
2021/10/12 10:57:36;;;;;;;16.55;12.05;;;;;;;;;;5053148;28;20100;-57
2021/10/12 11:00:18;;;;;;;16.00;11.70;;;;;;;;;;5053005;28;20032;-59
2021/10/12 11:02:45;;;;;;;16.30;10.88;;;;;;;;;;5053236;28;20053;-60
2021/10/12 11:05:30;;;;;;;15.68;10.90;;;;;;;;;;5035980;28;20096;-59
2021/10/12 11:08:08;;;;;;;15.50;10.40;;;;;;;;;;5053529;28;20485;-60
2021/10/12 11:10:34;;;;;;;18.17;11.55;;;;;;;;;;5035253;28;20611;-57
2021/10/12 11:13:00;;;;;;;16.55;11.50;;;;;;;;;;5053147;28;20044;-60
2021/10/12 11:15:26;;;;;;;17.30;12.10;;;;;;;;;;5053231;28;20075;-62
2021/10/12 11:18:09;;;;;;;16.88;11.48;;;;;;;;;;5035293;28;20129;-61
2021/10/12 11:20:39;;;;;;;16.88;12.10;;;;;;;;;;5035134;28;20024;-62
2021/10/12 11:23:05;;;;;;;16.45;10.95;;;;;;;;;;5053313;28;20029;-51
2021/10/12 11:25:32;;;;;;;16.35;10.93;;;;;;;;;;5052708;28;20048;-61
2021/10/12 11:28:05;;;;;;;15.40;11.40;;;;;;;;;;5053258;28;20471;-59
2021/10/12 11:30:35;;;;;;;15.32;10.20;;;;;;;;;;5035657;28;20025;-56
2021/10/12 11:33:01;;;;;;;14.90;10.32;;;;;;;;;;5034984;28;20032;-62
2021/10/12 11:35:40;;;;;;;16.40;10.25;;;;;;;;;;5052772;28;20057;-59
2021/10/12 11:38:06;;;;;;;;;;;;;;;;;;5052791;28;20056;-60
2021/10/12 11:40:32;;;;;;;17.65;11.43;;;;;;;;;;5052409;28;20355;-61
2021/10/12 11:42:59;;;;;;;15.65;10.43;;;;;;;;;;5052302;28;20029;-58
2021/10/12 11:45:26;;;;;;;16.77;10.50;;;;;;;;;;5052159;28;20024;-61
2021/10/12 11:47:52;;;;;;;16.88;9.90;;;;;;;;;;5053170;28;20124;-61
2021/10/12 11:50:18;;;;;;;16.17;9.85;;;;;;;;;;5051971;28;20029;-61
2021/10/12 11:52:51;;;;;;;17.63;10.60;;;;;;;;;;5053119;28;20028;-61
2021/10/12 11:55:18;;;;;;;17.15;10.30;;;;;;;;;;5052936;28;20029;-62
2021/10/12 11:57:46;;;;;;;16.35;11.48;;;;;;;;;;5034456;28;20032;-63
2021/10/12 12:00:12;;;;;;;18.05;11.45;;;;;;;;;;5034829;28;20425;-62
2021/10/12 12:02:40;;;;;;;16.58;11.93;;;;;;;;;;5034523;28;20064;-60
2021/10/12 12:05:06;;;;;;;17.55;10.90;;;;;;;;;;5052372;28;20021;-62
2021/10/12 12:07:34;;;;;;;17.77;10.50;;;;;;;;;;5052238;28;20057;-58
2021/10/12 12:10:00;;;;;;;19.48;11.02;;;;;;;;;;5033586;28;20021;-59
2021/10/12 12:12:26;;;;;;;17.10;10.70;;;;;;;;;;5051908;28;20446;-60
2021/10/12 12:14:53;;;;;;;18.02;10.15;;;;;;;;;;5051719;28;20027;-60
2021/10/12 12:17:23;;;;;;;17.30;8.98;;;;;;;;;;5051932;28;20104;-62
2021/10/12 12:19:50;;;;;;;19.00;8.77;;;;;;;;;;5051364;28;20025;-61
2021/10/12 12:22:26;;;;;;;16.35;8.05;;;;;;;;;;5051781;28;20036;-60
2021/10/12 12:24:55;;;;;;;16.30;7.90;;;;;;;;;;5034606;28;20474;-60
2021/10/12 12:27:21;;;;;;;16.17;7.30;;;;;;;;;;5051804;28;20021;-59
2021/10/12 12:30:06;;;;;;;17.90;7.97;;;18.90;99.90;;;;;;5051370;28;20127;-61
2021/10/12 12:32:31;;;;;;;15.63;8.93;;;18.10;99.90;;;;;;5052064;28;20028;-59
2021/10/12 12:35:00;;;;;;;17.50;9.90;;;18.90;99.90;;;;;;5033873;28;20086;-60
2021/10/12 12:37:26;;;;;;;17.35;10.00;;;19.70;99.90;;;;;;5051806;28;20021;-61
2021/10/12 12:39:53;;;;;;;15.73;10.15;;;19.20;99.90;;;;;;5033624;28;20029;-60
2021/10/12 12:42:38;;;;;;;17.55;9.77;;;18.70;99.90;;;;;;5051543;28;20031;-60
2021/10/12 12:45:17;;;;;;;16.48;10.30;;;17.70;99.90;;;;;;5033545;28;20021;-61
2021/10/12 12:47:42;;;;;;;;;;;;;;;;;;5033814;28;20029;-59
2021/10/12 12:50:09;;;;;;;16.77;10.13;;;;;;;;;;5033152;28;19911;-59
2021/10/12 12:52:35;;;;;;;16.20;10.18;;;;;;;;;;5033567;28;20123;-55
2021/10/12 12:55:01;;;;;;;15.48;9.82;;;;;;;;;;5051222;28;20037;-59
2021/10/12 12:57:27;;;;;;;16.33;10.10;;;;;;;;;;5050602;28;20036;-55
2021/10/12 13:00:01;;;;;;;18.70;10.43;;;;;;;;;;5050862;28;20051;-60
2021/10/12 13:02:27;;;;;;;19.75;10.27;;;;;;;;;;5051610;28;20417;-55
2021/10/12 13:04:53;;;;;;;15.35;10.15;;;;;;;;;;5051726;28;20048;-57
2021/10/12 13:07:19;;;;;;;16.40;10.73;;;;;;;;;;5052061;28;20017;-58
2021/10/12 13:09:48;;;;;;;19.38;11.40;;;17.50;99.90;;;;;;5051377;28;20032;-56
2021/10/12 13:12:17;;;;;;;15.68;10.70;;;21.10;99.90;;;;;;5051508;28;20035;-60
2021/10/12 13:14:49;;;;;;;18.17;12.40;;;20.30;99.90;;;;;;5033211;28;20070;-60
2021/10/12 13:17:20;;;;;;;18.60;10.82;;;20.70;99.90;;;;;;5032875;28;20044;-61
2021/10/12 13:19:49;;;;;;;16.42;10.98;;;19.50;99.90;;;;;;5051087;28;20025;-60
2021/10/12 13:22:15;;;;;;;18.80;11.50;;;19.00;99.90;;;;;;5051512;28;20096;-61
2021/10/12 13:24:42;;;;;;;16.70;10.88;;;;;;;;;;5051125;28;20365;-58
2021/10/12 13:27:08;;;;;;;20.98;11.50;;;;;;;;;;5051197;28;20021;-59
2021/10/12 13:29:34;;;;;;;19.02;11.50;;;;;;;;;;5033384;28;20088;-59
2021/10/12 13:32:00;;;;;;;17.50;11.02;;;;;;;;;;5050967;28;20031;-61
2021/10/12 13:34:30;;;;;;;16.95;11.20;;;19.10;99.90;;;;;;5033286;28;20032;-59
2021/10/12 13:36:55;;;;;;;15.85;11.40;;;21.50;99.90;;;;;;5051260;28;20048;-60
2021/10/12 13:39:21;;;;;;;17.25;10.88;;;21.40;99.90;;;;;;5033521;28;20075;-61
2021/10/12 13:41:47;;;;;;;21.42;12.00;;;20.40;99.90;;;;;;5050652;28;20083;-61
2021/10/12 13:44:13;;;;;;;18.55;11.90;;;;;;;;;;5050816;28;20421;-60
2021/10/12 13:46:39;;;;;;;17.95;11.68;;;;;;;;;;5033409;28;20021;-54
2021/10/12 13:49:05;;;;;;;16.48;11.63;;;;;;;;;;5032354;28;20029;-61
2021/10/12 13:51:31;;;;;;;17.80;11.20;;;;;;;;;;5032586;28;20029;-61
2021/10/12 13:53:57;;;;;;;18.92;11.43;;;;;;;;;;5032609;28;20120;-60
2021/10/12 13:56:23;;;;;;;15.82;11.25;;;20.60;99.90;;;;;;5032390;28;20116;-58
2021/10/12 13:58:49;;;;;;;17.27;11.48;;;;;;;;;;5050703;28;20126;-59
2021/10/12 14:01:15;;;;;;;18.00;11.60;;;;;;;;;;5032382;28;20488;-60
2021/10/12 14:03:41;;;;;;;17.35;11.75;;;;;;;;;;5051443;28;20036;-62
2021/10/12 14:06:07;;;;;;;17.38;11.90;;;;;;;;;;5050215;28;20087;-58
2021/10/12 14:08:33;;;;;;;18.40;11.95;;;;;;;;;;5034688;28;20055;-60
2021/10/12 14:10:59;;;;;;;17.23;11.95;;;;;;;;;;5035570;28;20028;-61
2021/10/12 14:13:26;;;;;;;16.48;11.70;;;;;;;;;;5053699;28;20074;-60
2021/10/12 14:15:52;;;;;;;19.70;12.07;;;;;;;;;;5053615;28;20028;-55
2021/10/12 14:18:20;;;;;;;17.42;11.63;;;;;;;;;;5053385;28;20028;-56
2021/10/12 14:20:47;;;;;;;18.00;11.75;;;;;;;;;;5053767;28;20474;-59
2021/10/12 14:23:13;;;;;;;16.55;11.15;;;;;;;;;;5054374;28;20465;-58